createdAt,value
2018-12-02T00:00:31.375Z,3.00
2018-12-02T00:03:00.630Z,3.00
2018-12-02T00:05:29.252Z,3.00
2018-12-02T00:10:26.581Z,3.10
2018-12-02T00:12:55.053Z,3.10
2018-12-02T00:15:28.590Z,3.10
2018-12-02T00:18:01.043Z,3.10
2018-12-02T00:20:29.509Z,3.10
2018-12-02T00:22:57.918Z,3.00
2018-12-02T00:25:26.314Z,3.10
2018-12-02T00:27:56.911Z,3.10
2018-12-02T00:32:56.986Z,3.10
2018-12-02T00:35:25.426Z,3.10
2018-12-02T00:37:57.625Z,3.10
2018-12-02T00:40:26.089Z,3.10
2018-12-02T00:42:57.430Z,3.10
2018-12-02T00:45:28.007Z,3.10
2018-12-02T00:50:24.583Z,3.10
2018-12-02T00:52:56.256Z,3.00
2018-12-02T00:55:28.276Z,2.90
2018-12-02T00:57:56.665Z,2.90
2018-12-02T01:00:25.074Z,2.90
2018-12-02T01:02:53.507Z,2.80
2018-12-02T01:05:22.825Z,2.70
2018-12-02T01:07:51.298Z,2.70
2018-12-02T01:10:21.778Z,2.70
2018-12-02T01:15:20.738Z,2.60
2018-12-02T01:17:49.556Z,2.60
2018-12-02T01:20:19.142Z,2.70
2018-12-02T01:22:47.550Z,2.80
2018-12-02T01:25:16.026Z,2.90
2018-12-02T01:27:45.066Z,2.90
2018-12-02T01:30:16.648Z,3.00
2018-12-02T01:32:45.126Z,3.00
2018-12-02T01:35:14.217Z,3.00
2018-12-02T01:37:42.646Z,3.10
2018-12-02T01:40:13.974Z,3.10
2018-12-02T01:42:42.456Z,3.10
2018-12-02T01:45:13.214Z,3.10
2018-12-02T01:47:41.614Z,3.00
2018-12-02T01:50:13.176Z,3.00
2018-12-02T01:52:41.916Z,2.90
2018-12-02T01:55:10.409Z,2.90
2018-12-02T01:57:38.894Z,2.80
2018-12-02T02:00:13.927Z,2.80
2018-12-02T02:02:42.314Z,2.80
2018-12-02T02:05:10.743Z,2.80
2018-12-02T02:07:39.237Z,2.80
2018-12-02T02:10:11.330Z,2.80
2018-12-02T02:12:39.783Z,2.90
2018-12-02T02:15:09.878Z,2.90
2018-12-02T02:17:38.351Z,2.80
2018-12-02T02:20:09.125Z,2.80
2018-12-02T02:22:37.510Z,2.80
2018-12-02T02:25:07.850Z,2.70
2018-12-02T02:27:36.273Z,2.60
2018-12-02T02:32:35.909Z,2.60
2018-12-02T02:35:04.662Z,2.60
2018-12-02T02:37:33.030Z,2.60
2018-12-02T02:40:01.439Z,2.50
2018-12-02T02:42:29.831Z,2.60
2018-12-02T02:44:58.211Z,2.50
2018-12-02T02:47:26.606Z,2.50
2018-12-02T02:52:23.131Z,2.50
2018-12-02T02:54:51.507Z,2.40
2018-12-02T02:57:19.902Z,2.30
2018-12-02T03:02:16.376Z,2.30
2018-12-02T03:04:44.786Z,2.30
2018-12-02T03:07:13.173Z,2.40
2018-12-02T03:09:41.574Z,2.30
2018-12-02T03:12:10.003Z,2.30
2018-12-02T03:14:38.388Z,2.20
2018-12-02T03:17:06.827Z,2.20
2018-12-02T03:22:03.307Z,2.10
2018-12-02T03:24:31.682Z,2.20
2018-12-02T03:27:00.086Z,2.10
2018-12-02T03:29:28.470Z,2.10
2018-12-02T03:31:56.877Z,2.00
2018-12-02T03:34:25.252Z,2.00
2018-12-02T03:36:53.655Z,2.00
2018-12-02T03:39:22.032Z,2.00
2018-12-02T03:41:50.465Z,2.10
2018-12-02T03:46:46.965Z,2.20
2018-12-02T03:49:15.347Z,2.30
2018-12-02T03:51:43.750Z,2.30
2018-12-02T03:54:12.134Z,2.40
2018-12-02T03:56:44.778Z,2.40
2018-12-02T03:59:13.165Z,2.40
2018-12-02T04:01:41.555Z,2.40
2018-12-02T04:04:09.925Z,2.40
2018-12-02T04:06:38.323Z,2.60
2018-12-02T04:09:08.824Z,2.60
2018-12-02T04:11:38.148Z,2.70
2018-12-02T04:14:06.940Z,2.50
2018-12-02T04:16:35.372Z,2.30
2018-12-02T04:19:03.790Z,2.40
2018-12-02T04:24:00.276Z,2.40
2018-12-02T04:26:28.685Z,2.50
2018-12-02T04:28:57.119Z,2.50
2018-12-02T04:31:25.519Z,2.50
2018-12-02T04:33:53.891Z,2.50
2018-12-02T04:36:22.286Z,2.50
2018-12-02T04:38:50.694Z,2.60
2018-12-02T04:41:19.098Z,2.70
2018-12-02T04:43:47.475Z,2.70
2018-12-02T04:46:15.907Z,2.80
2018-12-02T04:48:44.274Z,2.80
2018-12-02T04:51:12.674Z,2.80
2018-12-02T04:53:41.099Z,2.80
2018-12-02T04:56:09.503Z,2.90
2018-12-02T04:58:37.967Z,2.90
2018-12-02T05:01:06.786Z,2.90
2018-12-02T05:03:35.167Z,2.90
2018-12-02T05:06:03.579Z,2.90
2018-12-02T05:08:31.992Z,3.00
2018-12-02T05:13:28.486Z,3.00
2018-12-02T05:15:56.870Z,3.10
2018-12-02T05:18:25.276Z,3.10
2018-12-02T05:20:53.679Z,3.10
2018-12-02T05:23:22.138Z,3.10
2018-12-02T05:25:50.558Z,3.20
2018-12-02T05:28:19.340Z,3.10
2018-12-02T05:30:47.819Z,3.00
2018-12-02T05:33:16.226Z,3.00
2018-12-02T05:35:44.620Z,3.10
2018-12-02T05:38:13.026Z,3.10
2018-12-02T05:40:41.431Z,3.20
2018-12-02T05:43:09.821Z,3.20
2018-12-02T05:45:38.210Z,3.30
2018-12-02T05:48:06.606Z,3.40
2018-12-02T05:50:34.978Z,3.40
2018-12-02T05:58:00.303Z,3.50
2018-12-02T06:00:28.704Z,3.50
2018-12-02T06:02:57.131Z,3.50
2018-12-02T06:05:26.571Z,3.50
2018-12-02T06:07:55.010Z,3.50
2018-12-02T06:10:23.579Z,3.50
2018-12-02T06:12:51.990Z,3.50
2018-12-02T06:15:20.997Z,3.50
2018-12-02T06:17:49.464Z,3.50
2018-12-02T06:20:19.730Z,3.40
2018-12-02T06:22:48.738Z,3.40
2018-12-02T06:25:17.135Z,3.40
2018-12-02T06:27:45.766Z,3.50
2018-12-02T06:30:19.003Z,3.50
2018-12-02T06:32:48.513Z,3.30
2018-12-02T06:35:16.895Z,3.10
2018-12-02T06:37:45.309Z,2.90
2018-12-02T06:42:43.288Z,3.00
2018-12-02T06:45:12.449Z,3.10
2018-12-02T06:47:40.870Z,3.20
2018-12-02T06:50:18.757Z,3.30
2018-12-02T06:52:47.149Z,3.30
2018-12-02T06:55:26.341Z,3.40
2018-12-02T06:57:57.714Z,3.50
2018-12-02T07:00:34.765Z,3.60
2018-12-02T07:03:36.491Z,3.60
2018-12-02T07:06:04.898Z,3.70
2018-12-02T07:08:33.331Z,3.70
2018-12-02T07:11:01.722Z,3.80
2018-12-02T07:13:30.137Z,3.80
2018-12-02T07:15:58.529Z,3.80
2018-12-02T07:18:27.997Z,3.90
2018-12-02T07:20:56.384Z,4.00
2018-12-02T07:23:24.781Z,4.00
2018-12-02T07:25:53.166Z,4.00
2018-12-02T07:28:21.609Z,4.00
2018-12-02T07:30:50.072Z,4.10
2018-12-02T07:33:18.497Z,4.10
2018-12-02T07:35:46.875Z,4.10
2018-12-02T07:38:33.775Z,4.10
2018-12-02T07:41:02.698Z,4.20
2018-12-02T07:43:31.092Z,4.20
2018-12-02T07:45:59.482Z,4.20
2018-12-02T07:50:55.958Z,4.20
2018-12-02T07:55:52.441Z,4.20
2018-12-02T08:00:49.279Z,4.30
2018-12-02T08:03:17.688Z,4.30
2018-12-02T08:05:46.064Z,4.20
2018-12-02T08:08:14.618Z,4.20
2018-12-02T08:13:11.190Z,4.40
2018-12-02T08:15:39.602Z,4.40
2018-12-02T08:18:07.982Z,4.40
2018-12-02T08:20:36.426Z,4.50
2018-12-02T08:23:05.402Z,4.60
2018-12-02T08:25:33.813Z,4.60
2018-12-02T08:28:02.231Z,4.60
2018-12-02T08:30:30.623Z,4.60
2018-12-02T08:32:59.010Z,4.70
2018-12-02T08:35:30.253Z,4.70
2018-12-02T08:38:01.370Z,4.70
2018-12-02T08:40:29.823Z,4.70
2018-12-02T08:42:58.215Z,4.70
2018-12-02T08:47:54.770Z,4.60
2018-12-02T08:50:23.184Z,4.60
2018-12-02T08:52:52.358Z,4.60
2018-12-02T08:55:21.399Z,4.60
2018-12-02T08:57:51.185Z,4.60
2018-12-02T09:00:21.526Z,4.50
2018-12-02T09:02:55.182Z,4.50
2018-12-02T09:05:24.855Z,4.50
2018-12-02T09:07:54.583Z,4.50
2018-12-02T09:10:26.098Z,4.50
2018-12-02T09:12:56.754Z,4.60
2018-12-02T09:17:53.367Z,4.90
2018-12-02T09:20:23.588Z,5.00
2018-12-02T09:22:51.914Z,5.10
2018-12-02T09:25:20.389Z,5.20
2018-12-02T09:27:49.143Z,5.20
2018-12-02T09:30:19.845Z,5.20
2018-12-02T09:32:48.240Z,5.20
2018-12-02T09:35:16.672Z,5.20
2018-12-02T09:37:45.054Z,5.20
2018-12-02T09:40:14.436Z,5.20
2018-12-02T09:45:13.959Z,5.20
2018-12-02T09:47:42.359Z,5.20
2018-12-02T09:50:11.825Z,5.30
2018-12-02T09:52:40.251Z,5.40
2018-12-02T09:55:14.049Z,5.50
2018-12-02T09:57:42.483Z,5.50
2018-12-02T10:00:13.470Z,5.60
2018-12-02T10:02:41.894Z,5.60
2018-12-02T10:05:10.414Z,5.70
2018-12-02T10:07:38.796Z,5.70
2018-12-02T10:10:11.826Z,5.70
2018-12-02T10:12:40.244Z,5.80
2018-12-02T10:15:10.643Z,5.90
2018-12-02T10:17:39.272Z,5.90
2018-12-02T10:20:09.958Z,6.00
2018-12-02T10:25:09.470Z,6.10
2018-12-02T10:27:37.986Z,6.10
2018-12-02T10:30:12.888Z,6.10
2018-12-02T10:32:41.279Z,6.10
2018-12-02T10:35:09.707Z,6.10
2018-12-02T10:37:38.129Z,6.20
2018-12-02T10:40:13.678Z,6.20
2018-12-02T10:45:11.826Z,6.30
2018-12-02T10:47:40.317Z,6.30
2018-12-02T10:50:14.994Z,6.40
2018-12-02T10:55:19.690Z,6.40
2018-12-02T10:57:48.406Z,6.50
2018-12-02T11:00:22.215Z,6.50
2018-12-02T11:02:50.610Z,6.50
2018-12-02T11:05:19.005Z,6.50
2018-12-02T11:07:47.417Z,6.50
2018-12-02T11:10:16.007Z,6.50
2018-12-02T11:12:44.423Z,6.50
2018-12-02T11:15:14.072Z,6.50
2018-12-02T11:17:42.923Z,6.50
2018-12-02T11:20:14.418Z,6.50
2018-12-02T11:22:42.878Z,6.70
2018-12-02T11:25:13.378Z,6.70
2018-12-02T11:27:41.881Z,6.80
2018-12-02T11:30:13.681Z,7.00
2018-12-02T11:32:42.579Z,7.00
2018-12-02T11:35:12.319Z,7.10
2018-12-02T11:37:40.757Z,7.10
2018-12-02T11:40:17.150Z,7.10
2018-12-02T11:42:45.835Z,7.10
2018-12-02T11:45:15.020Z,7.10
2018-12-02T11:47:44.525Z,7.10
2018-12-02T11:50:15.946Z,7.20
2018-12-02T11:52:44.367Z,7.20
2018-12-02T11:55:13.696Z,7.20
2018-12-02T11:57:42.194Z,7.20
2018-12-02T12:00:17.598Z,7.20
2018-12-02T12:02:45.991Z,7.20
2018-12-02T12:05:14.831Z,7.30
2018-12-02T12:07:43.919Z,7.30
2018-12-02T12:10:19.176Z,7.30
2018-12-02T12:12:48.470Z,7.30
2018-12-02T12:15:21.748Z,7.30
2018-12-02T12:17:50.169Z,7.30
2018-12-02T12:20:49.271Z,7.40
2018-12-02T12:23:19.405Z,7.40
2018-12-02T12:25:48.284Z,7.40
2018-12-02T12:28:17.192Z,7.40
2018-12-02T12:30:45.659Z,7.30
2018-12-02T12:33:14.058Z,7.30
2018-12-02T12:35:47.146Z,7.30
2018-12-02T12:38:15.570Z,7.30
2018-12-02T12:40:44.827Z,7.30
2018-12-02T12:43:18.241Z,7.30
2018-12-02T12:45:46.742Z,7.30
2018-12-02T12:48:15.150Z,7.30
2018-12-02T12:50:43.569Z,7.40
2018-12-02T12:53:12.404Z,7.40
2018-12-02T13:00:37.323Z,7.40
2018-12-02T13:03:06.406Z,7.60
2018-12-02T13:05:34.833Z,7.60
2018-12-02T13:10:31.367Z,7.70
2018-12-02T13:12:59.919Z,7.70
2018-12-02T13:15:28.304Z,7.90
2018-12-02T13:17:59.067Z,8.10
2018-12-02T13:20:30.324Z,8.30
2018-12-02T13:22:58.741Z,8.40
2018-12-02T13:25:27.130Z,8.60
2018-12-02T13:27:55.534Z,8.60
2018-12-02T13:30:24.003Z,8.70
2018-12-02T13:32:53.640Z,8.70
2018-12-02T13:35:22.226Z,8.60
2018-12-02T13:37:50.619Z,8.50
2018-12-02T13:40:20.707Z,8.50
2018-12-02T13:42:51.596Z,8.50
2018-12-02T13:45:21.424Z,8.50
2018-12-02T13:47:49.885Z,8.50
2018-12-02T13:50:19.218Z,8.60
2018-12-02T13:55:19.845Z,8.70
2018-12-02T13:57:48.744Z,8.70
2018-12-02T14:00:19.039Z,8.60
2018-12-02T14:02:48.805Z,8.50
2018-12-02T14:05:17.218Z,8.50
2018-12-02T14:07:45.622Z,8.40
2018-12-02T14:10:14.719Z,8.40
2018-12-02T14:12:47.844Z,8.30
2018-12-02T14:15:38.978Z,8.30
2018-12-02T14:18:15.098Z,8.30
2018-12-02T14:20:43.528Z,8.20
2018-12-02T14:23:11.944Z,8.20
2018-12-02T14:25:40.351Z,8.20
2018-12-02T14:28:09.531Z,8.20
2018-12-02T14:30:38.103Z,8.20
2018-12-02T14:33:06.846Z,8.10
2018-12-02T14:35:35.258Z,8.10
2018-12-02T14:38:03.804Z,8.10
2018-12-02T14:40:32.196Z,8.10
2018-12-02T14:43:00.618Z,8.10
2018-12-02T14:45:29.014Z,8.10
2018-12-02T14:47:57.416Z,8.10
2018-12-02T14:50:25.804Z,8.00
2018-12-02T14:52:54.191Z,8.00
2018-12-02T15:00:19.116Z,8.30
2018-12-02T15:05:15.770Z,8.50
2018-12-02T15:07:44.696Z,8.50
2018-12-02T15:10:15.441Z,8.60
2018-12-02T15:12:44.630Z,8.60
2018-12-02T15:15:14.222Z,8.70
2018-12-02T15:17:43.041Z,8.70
2018-12-02T15:20:12.965Z,8.80
2018-12-02T15:22:41.403Z,8.80
2018-12-02T15:25:11.226Z,8.80
2018-12-02T15:27:39.659Z,8.80
2018-12-02T15:30:12.490Z,8.90
2018-12-02T15:32:41.511Z,8.90
2018-12-02T15:37:38.500Z,9.00
2018-12-02T15:40:09.995Z,9.00
2018-12-02T15:42:39.391Z,9.10
2018-12-02T15:45:11.442Z,9.10
2018-12-02T15:47:39.864Z,9.10
2018-12-02T15:50:14.342Z,9.20
2018-12-02T15:55:12.409Z,9.30
2018-12-02T15:57:40.843Z,9.30
2018-12-02T16:00:18.149Z,9.30
2018-12-02T16:02:46.602Z,9.30
2018-12-02T16:05:15.036Z,9.40
2018-12-02T16:07:43.431Z,9.30
2018-12-02T16:10:12.839Z,9.30
2018-12-02T16:12:42.400Z,9.30
2018-12-02T16:15:13.159Z,9.30
2018-12-02T16:17:41.655Z,9.40
2018-12-02T16:20:14.407Z,9.40
2018-12-02T16:22:43.095Z,9.40
2018-12-02T16:25:11.676Z,9.40
2018-12-02T16:27:40.083Z,9.40
2018-12-02T16:32:38.122Z,9.40
2018-12-02T16:35:08.152Z,9.40
2018-12-02T16:38:13.856Z,9.50
2018-12-02T16:40:42.288Z,9.50
2018-12-02T16:43:11.535Z,9.50
2018-12-02T16:45:40.083Z,9.50
2018-12-02T16:48:10.041Z,9.50
2018-12-02T16:50:46.962Z,9.60
2018-12-02T16:53:17.774Z,9.60
2018-12-02T16:56:22.595Z,9.60
2018-12-02T16:59:06.975Z,9.60
2018-12-02T17:01:35.367Z,9.70
2018-12-02T17:04:04.242Z,9.70
2018-12-02T17:11:28.927Z,9.70
2018-12-02T17:16:25.754Z,9.70
2018-12-02T17:18:54.478Z,9.70
2018-12-02T17:21:23.078Z,9.70
2018-12-02T17:23:51.922Z,9.70
2018-12-02T17:26:20.328Z,9.70
2018-12-02T17:28:49.142Z,9.70
2018-12-02T17:31:20.123Z,9.70
2018-12-02T17:33:48.526Z,9.70
2018-12-02T17:36:16.924Z,9.70
2018-12-02T17:38:49.018Z,9.70
2018-12-02T17:41:17.694Z,9.70
2018-12-02T17:43:46.082Z,9.70
2018-12-02T17:46:14.673Z,9.70
2018-12-02T17:48:43.063Z,9.60
2018-12-02T17:51:11.776Z,9.60
2018-12-02T17:53:41.658Z,9.70
2018-12-02T17:56:10.064Z,9.70
2018-12-02T17:58:38.538Z,9.80
2018-12-02T18:01:07.714Z,9.80
2018-12-02T18:03:36.316Z,9.80
2018-12-02T18:06:05.743Z,9.80
2018-12-02T18:08:34.179Z,9.80
2018-12-02T18:11:02.628Z,9.90
2018-12-02T18:13:31.037Z,9.90
2018-12-02T18:15:59.458Z,9.90
2018-12-02T18:18:27.838Z,9.90
2018-12-02T18:20:56.247Z,9.90
2018-12-02T18:23:24.660Z,9.90
2018-12-02T18:25:53.093Z,9.90
2018-12-02T18:28:21.460Z,9.80
2018-12-02T18:30:49.923Z,9.80
2018-12-02T18:33:18.330Z,9.70
2018-12-02T18:35:52.454Z,9.70
2018-12-02T18:38:22.322Z,9.70
2018-12-02T18:41:01.068Z,9.70
2018-12-02T18:43:29.468Z,9.60
2018-12-02T18:45:57.870Z,9.50
2018-12-02T18:48:26.283Z,9.60
2018-12-02T18:50:54.706Z,9.60
2018-12-02T18:55:51.250Z,9.60
2018-12-02T18:58:19.667Z,9.60
2018-12-02T19:00:48.547Z,9.70
2018-12-02T19:03:18.662Z,9.80
2018-12-02T19:05:48.301Z,9.80
2018-12-02T19:08:16.753Z,9.90
2018-12-02T19:10:46.831Z,9.90
2018-12-02T19:13:15.210Z,9.90
2018-12-02T19:18:12.256Z,9.90
2018-12-02T19:20:40.982Z,9.90
2018-12-02T19:23:11.646Z,9.90
2018-12-02T19:25:40.118Z,9.90
2018-12-02T19:28:08.511Z,9.90
2018-12-02T19:30:36.909Z,10.00
2018-12-02T19:33:10.836Z,10.00
2018-12-02T19:35:39.346Z,10.00
2018-12-02T19:38:22.919Z,10.10
2018-12-02T19:40:56.491Z,10.20
2018-12-02T19:43:25.585Z,10.20
2018-12-02T19:48:22.612Z,10.20
2018-12-02T19:50:51.010Z,10.20
2018-12-02T19:55:48.058Z,10.20
2018-12-02T19:58:16.619Z,10.20
2018-12-02T20:00:45.989Z,10.20
2018-12-02T20:03:15.597Z,10.20
2018-12-02T20:05:44.943Z,10.20
2018-12-02T20:08:14.197Z,10.30
2018-12-02T20:10:44.498Z,10.30
2018-12-02T20:13:20.383Z,10.30
2018-12-02T20:15:55.409Z,10.30
2018-12-02T20:18:24.031Z,10.30
2018-12-02T20:23:28.136Z,10.40
2018-12-02T20:25:58.631Z,10.40
2018-12-02T20:30:57.298Z,10.40
2018-12-02T20:33:25.707Z,10.40
2018-12-02T20:35:54.102Z,10.40
2018-12-02T20:38:22.520Z,10.40
2018-12-02T20:43:19.083Z,10.40
2018-12-02T20:45:47.725Z,10.40
2018-12-02T20:48:16.139Z,10.40
2018-12-02T20:50:45.186Z,10.40
2018-12-02T20:53:16.105Z,10.50
2018-12-02T20:55:42.107Z,10.50
2018-12-02T20:58:10.517Z,10.50
2018-12-02T21:00:39.016Z,10.50
2018-12-02T21:03:17.551Z,10.50
2018-12-02T21:05:52.927Z,10.50
2018-12-02T21:08:21.705Z,10.40
2018-12-02T21:10:50.093Z,10.50
2018-12-02T21:13:18.640Z,10.50
2018-12-02T21:15:47.032Z,10.50
2018-12-02T21:18:15.662Z,10.50
2018-12-02T21:20:44.047Z,10.50
2018-12-02T21:25:40.573Z,10.60
2018-12-02T21:30:40.563Z,10.50
2018-12-02T21:33:09.655Z,10.50
2018-12-02T21:35:38.089Z,10.50
2018-12-02T21:38:06.818Z,10.40
2018-12-02T21:40:35.229Z,10.40
2018-12-02T21:45:31.855Z,10.30
2018-12-02T21:53:00.918Z,10.20
2018-12-02T21:55:29.331Z,10.20
2018-12-02T22:00:31.162Z,10.10
2018-12-02T22:02:59.577Z,10.00
2018-12-02T22:07:56.151Z,10.00
2018-12-02T22:12:54.648Z,10.00
2018-12-02T22:15:23.107Z,10.00
2018-12-02T22:20:19.642Z,9.90
2018-12-02T22:25:17.137Z,9.90
2018-12-02T22:27:47.567Z,9.90
2018-12-02T22:30:17.155Z,9.90
2018-12-02T22:32:45.591Z,9.80
2018-12-02T22:45:12.766Z,9.80
2018-12-02T22:50:12.678Z,9.80
2018-12-02T22:52:41.272Z,9.80
2018-12-02T22:57:38.302Z,9.80
2018-12-02T23:02:46.603Z,9.80
2018-12-02T23:07:43.171Z,9.70
2018-12-02T23:10:11.578Z,9.70
2018-12-02T23:12:39.965Z,9.70
2018-12-02T23:20:05.792Z,9.70
2018-12-02T23:22:34.255Z,9.70
2018-12-02T23:25:02.667Z,9.70
2018-12-02T23:27:31.114Z,9.70
2018-12-02T23:29:59.522Z,9.70
2018-12-02T23:37:24.114Z,9.60
2018-12-02T23:39:52.746Z,9.60
2018-12-02T23:47:17.366Z,9.60
2018-12-02T23:49:45.783Z,9.60
2018-12-02T23:52:14.163Z,9.50
2018-12-02T23:54:42.706Z,9.60
